METAR Data
IDs: Format: Raw Decoded Include TAF

Data at: 1504 UTC 18 Aug 2019

PABT 181453Z 00000KT 10SM FEW200 04/M01 A3050 RMK AO2 SLP339 T00441011 56006 $
PABT 181353Z 00000KT 10SM FEW080 04/M02 A3050 RMK AO2 SLP340 T00441017 $
PABT 181253Z 01006KT 10SM FEW090 06/M01 A3050 RMK AO2 SLP338 T00611006 $
PABT 181153Z 01005KT 10SM FEW110 SCT180 08/M01 A3052 RMK AO2 SLP344 T00781011 10122 20072 51000 $
PABT 181053Z VRB04KT 10SM FEW090 BKN160 08/00 A3052 RMK AO2 SLP343 T00830000 $
PABT 180953Z 00000KT 10SM FEW090 BKN160 08/01 A3052 RMK AO2 SLP345 T00830006 $
PABT 180853Z 35007KT 10SM FEW110 SCT170 BKN200 09/M01 A3052 RMK AO2 SLP343 T00941011 401670039 51004 $
PABT 180753Z VRB06KT 10SM FEW110 SCT180 10/M01 A3052 RMK AO2 SLP342 ACSL VC W T01001011 $
PABT 180653Z 36009KT 10SM SCT110 BKN140 11/M02 A3051 RMK AO2 SLP341 T01111017 $
PABT 180553Z 01007KT 10SM SCT100 SCT140 12/M01 A3051 RMK AO2 SLP339 T01221011 10167 20122 58004 $
PABT 180453Z VRB04KT 10SM FEW100 SCT140 13/00 A3051 RMK AO2 SLP343 T01330000 $
PABT 180353Z 34005KT 10SM FEW100 SCT240 15/01 A3051 RMK AO2 SLP342 T01500011 $
PABT 180253Z 33008KT 10SM SCT250 16/01 A3052 RMK AO2 SLP344 T01610006 56008 $
PABT 180153Z 31010G16KT 10SM SCT250 16/M01 A3052 RMK AO2 SLP346 T01611006 $
PABT 180053Z 32008G15KT 290V360 10SM FEW250 16/M01 A3053 RMK AO2 SLP349 T01611006 $
PABT 172353Z 31008KT 10SM FEW250 16/00 A3054 RMK AO2 SLP352 T01560000 10167 20106 58008 $
PABT 172253Z 34005KT 10SM CLR 16/01 A3055 RMK AO2 SLP357 T01610006 $
PABT 172153Z 02007KT 10SM CLR 16/01 A3056 RMK AO2 SLP358 T01610006 $
PABT 172053Z 31008KT 10SM CLR 14/01 A3057 RMK AO2 SLP361 T01390011 50002 $
PABT 171953Z 03007KT 10SM CLR 14/01 A3057 RMK AO2 SLP362 T01390006 $
PABT 171853Z VRB05KT 10SM FEW090 13/02 A3056 RMK AO2 SLP360 T01280017 $
PABT 171753Z 34003KT 10SM FEW090 11/01 A3056 RMK AO2 SLP359 T01060006 10106 20039 51006 $
PABT 171653Z 31003KT 10SM FEW090 09/01 A3056 RMK AO2 SLP359 T00890006 $
PABT 171553Z 32003KT 10SM FEW200 07/M01 A3056 RMK AO2 SLP361 T00671006 $
PABT 171453Z 31004KT 10SM FEW200 04/M01 A3054 RMK AO2 SLP355 T00441011 51024 $
PABT 171353Z 34004KT 10SM FEW200 04/M01 A3053 RMK AO2 SLP349 T00441011 $
PABT 171253Z 31005KT 10SM FEW200 06/M02 A3050 RMK AO2 SLP340 T00561017 $
PABT 171153Z 36006KT 10SM FEW200 06/M01 A3047 RMK AO2 SLP329 70060 T00611011 10089 20050 51034 $
PABT 171053Z 35005KT 10SM FEW200 06/00 A3045 RMK AO2 SLP322 T00610000 $
PABT 170953Z 35005KT 10SM FEW200 07/M01 A3041 RMK AO2 SLP308 T00721006 $
PABT 170753Z 34005KT 10SM FEW080 FEW200 08/01 A3033 RMK AO2 SLP281 T00780006 $
PABT 170653Z 33007KT 10SM FEW080 08/01 A3029 RMK AO2 SLP265 T00830011 $
PABT 170553Z 33005KT 10SM FEW080 09/04 A3024 RMK AO2 SLP251 60027 T00940039 10117 20094 53038 $
PABT 170453Z 32006KT 10SM FEW010 SCT080 11/06 A3019 RMK AO2 SLP233 T01060056 $
PABT 170353Z 00000KT 10SM FEW010 BKN060 BKN080 11/09 A3016 RMK AO2 SLP221 T01060094 $